createdAt,value
2022-12-19T00:00:18.905Z,18.23
2022-12-19T00:02:47.301Z,17.52
2022-12-19T00:05:19.712Z,18.98
2022-12-19T00:07:50.126Z,16.80
2022-12-19T00:10:19.859Z,20.77
2022-12-19T00:12:48.190Z,18.17
2022-12-19T00:15:16.532Z,22.60
2022-12-19T00:17:45.187Z,18.70
2022-12-19T00:20:13.589Z,19.92
2022-12-19T00:22:47.356Z,19.55
2022-12-19T00:25:22.279Z,15.80
2022-12-19T00:27:52.309Z,21.20
2022-12-19T00:30:20.623Z,18.40
2022-12-19T00:32:49.018Z,17.63
2022-12-19T00:35:18.471Z,17.55
2022-12-19T00:37:49.642Z,17.33
2022-12-19T00:40:19.878Z,17.17
2022-12-19T00:42:53.422Z,17.35
2022-12-19T00:45:22.476Z,13.60
2022-12-19T00:47:51.155Z,18.40
2022-12-19T00:50:19.532Z,17.63
2022-12-19T00:52:47.810Z,18.13
2022-12-19T00:55:19.325Z,18.60
2022-12-19T00:57:49.900Z,17.90
2022-12-19T01:00:20.748Z,18.75
2022-12-19T01:02:49.113Z,15.63
2022-12-19T01:05:17.594Z,17.73
2022-12-19T01:07:45.885Z,17.75
2022-12-19T01:10:14.184Z,20.50
2022-12-19T01:12:47.060Z,18.55
2022-12-19T01:15:20.229Z,19.40
2022-12-19T01:17:49.123Z,16.23
2022-12-19T01:20:26.326Z,17.58
2022-12-19T01:23:00.083Z,17.42
2022-12-19T01:25:29.569Z,18.63
2022-12-19T01:27:58.369Z,18.17
2022-12-19T01:30:30.120Z,18.55
2022-12-19T01:32:59.885Z,17.70
2022-12-19T01:35:29.767Z,19.00
2022-12-19T01:38:05.703Z,19.15
2022-12-19T01:40:36.597Z,19.33
2022-12-19T01:43:05.228Z,21.15
2022-12-19T01:45:43.546Z,19.45
2022-12-19T01:48:17.654Z,18.75
2022-12-19T01:50:57.308Z,19.55
2022-12-19T01:53:33.512Z,19.02
2022-12-19T01:56:09.360Z,19.77
2022-12-19T01:58:41.315Z,18.92
2022-12-19T02:01:11.048Z,19.77
2022-12-19T02:03:40.787Z,18.80
2022-12-19T02:06:12.383Z,18.40
2022-12-19T02:08:41.506Z,20.00
2022-12-19T02:11:09.873Z,19.60
2022-12-19T02:13:40.280Z,19.20
2022-12-19T02:16:18.212Z,20.17
2022-12-19T02:18:53.830Z,18.30
2022-12-19T02:21:39.378Z,19.83
2022-12-19T02:24:18.705Z,19.23
2022-12-19T02:26:59.193Z,17.85
2022-12-19T02:29:58.153Z,18.15
2022-12-19T02:32:33.396Z,17.85
2022-12-19T02:35:11.302Z,18.52
2022-12-19T02:37:46.758Z,18.40
2022-12-19T02:40:19.634Z,20.10
2022-12-19T02:42:53.370Z,18.15
2022-12-19T02:45:28.775Z,19.65
2022-12-19T02:48:04.533Z,16.52
2022-12-19T02:50:39.583Z,18.67
2022-12-19T02:53:08.598Z,18.98
2022-12-19T02:55:42.840Z,18.55
2022-12-19T02:58:24.550Z,19.15
2022-12-19T03:00:57.839Z,18.67
2022-12-19T03:03:34.651Z,17.27
2022-12-19T03:06:16.348Z,18.27
2022-12-19T03:08:50.547Z,14.43
2022-12-19T03:11:19.144Z,16.65
2022-12-19T03:13:54.773Z,12.23
2022-12-19T03:16:23.533Z,15.48
2022-12-19T03:19:00.577Z,15.38
2022-12-19T03:21:34.044Z,13.50
2022-12-19T03:24:02.965Z,15.18
2022-12-19T03:26:33.913Z,14.80
2022-12-19T03:29:06.518Z,11.57
2022-12-19T03:31:35.130Z,15.70
2022-12-19T03:34:09.282Z,14.10
2022-12-19T03:36:40.296Z,14.93
2022-12-19T03:39:10.442Z,14.57
2022-12-19T03:41:56.828Z,15.75
2022-12-19T03:44:27.675Z,13.43
2022-12-19T03:47:00.184Z,13.70
2022-12-19T03:49:29.902Z,14.65
2022-12-19T03:52:16.483Z,14.15
2022-12-19T03:54:51.265Z,13.23
2022-12-19T03:57:24.752Z,14.00
2022-12-19T03:59:56.317Z,8.95
2022-12-19T04:02:25.108Z,12.50
2022-12-19T04:04:57.738Z,12.75
2022-12-19T04:07:26.627Z,3.83
2022-12-19T04:09:55.722Z,17.13
2022-12-19T04:12:28.333Z,27.00
2022-12-19T04:14:56.843Z,11.80
2022-12-19T04:17:31.711Z,15.80
2022-12-19T04:20:04.760Z,13.45
2022-12-19T04:22:37.014Z,8.73
2022-12-19T04:25:08.658Z,17.05
2022-12-19T04:27:39.043Z,14.75
2022-12-19T04:30:08.506Z,13.80
2022-12-19T04:32:37.878Z,9.73
2022-12-19T04:35:09.504Z,16.50
2022-12-19T04:37:37.950Z,13.23
2022-12-19T04:40:08.409Z,15.07
2022-12-19T04:42:36.771Z,17.45
2022-12-19T04:45:06.909Z,15.55
2022-12-19T04:47:35.218Z,10.07
2022-12-19T04:50:03.580Z,16.10
2022-12-19T04:52:33.244Z,16.08
2022-12-19T04:55:01.580Z,16.35
2022-12-19T04:57:30.623Z,18.17
2022-12-19T04:59:59.041Z,16.73
2022-12-19T05:02:27.635Z,13.50
2022-12-19T05:04:56.072Z,15.60
2022-12-19T05:07:24.409Z,17.25
2022-12-19T05:09:54.178Z,16.58
2022-12-19T05:12:22.651Z,19.15
2022-12-19T05:14:50.982Z,20.25
2022-12-19T05:17:19.339Z,16.40
2022-12-19T05:19:47.698Z,17.25
2022-12-19T05:22:16.029Z,16.88
2022-12-19T05:24:44.336Z,15.55
2022-12-19T05:27:14.041Z,18.00
2022-12-19T05:29:42.388Z,16.75
2022-12-19T05:32:10.917Z,20.20
2022-12-19T05:34:39.181Z,15.80
2022-12-19T05:37:07.719Z,17.05
2022-12-19T05:39:36.094Z,16.50
2022-12-19T05:42:07.347Z,16.38
2022-12-19T05:44:40.683Z,17.08
2022-12-19T05:47:09.527Z,15.73
2022-12-19T05:49:40.839Z,19.02
2022-12-19T05:52:11.794Z,17.48
2022-12-19T05:54:40.055Z,19.52
2022-12-19T05:57:11.555Z,17.30
2022-12-19T06:00:00.123Z,16.88
2022-12-19T06:02:35.756Z,18.30
2022-12-19T06:05:04.651Z,19.10
2022-12-19T06:07:33.681Z,17.58
2022-12-19T06:10:02.269Z,19.50
2022-12-19T06:12:30.657Z,20.27
2022-12-19T06:15:03.085Z,17.70
2022-12-19T06:17:31.959Z,17.50
2022-12-19T06:20:00.522Z,19.27
2022-12-19T06:22:28.775Z,19.15
2022-12-19T06:24:57.099Z,19.75
2022-12-19T06:27:25.531Z,18.85
2022-12-19T06:29:54.017Z,17.40
2022-12-19T06:32:23.837Z,17.05
2022-12-19T06:35:07.430Z,16.80
2022-12-19T06:37:39.368Z,16.88
2022-12-19T06:40:29.445Z,17.27
2022-12-19T06:42:56.681Z,18.15
2022-12-19T06:45:24.945Z,18.15
2022-12-19T06:47:54.731Z,16.45
2022-12-19T06:50:23.048Z,17.60
2022-12-19T06:52:51.380Z,18.67
2022-12-19T06:55:20.154Z,18.05
2022-12-19T06:57:48.403Z,17.08
2022-12-19T07:00:17.960Z,18.30
2022-12-19T07:02:49.704Z,18.02
2022-12-19T07:05:19.966Z,17.70
2022-12-19T07:07:48.303Z,16.52
2022-12-19T07:10:16.879Z,17.77
2022-12-19T07:12:45.254Z,17.65
2022-12-19T07:15:13.737Z,16.45
2022-12-19T07:17:42.435Z,17.08
2022-12-19T07:20:12.273Z,17.83
2022-12-19T07:22:42.946Z,17.92
2022-12-19T07:25:11.748Z,17.77
2022-12-19T07:27:40.588Z,18.52
2022-12-19T07:30:10.607Z,16.48
2022-12-19T07:32:39.672Z,17.15
2022-12-19T07:35:08.803Z,16.63
2022-12-19T07:37:37.126Z,16.80
2022-12-19T07:40:08.304Z,18.38
2022-12-19T07:42:36.856Z,17.42
2022-12-19T07:45:05.459Z,17.90
2022-12-19T07:47:33.839Z,15.65
2022-12-19T07:50:02.542Z,21.42
2022-12-19T07:52:31.799Z,20.48
2022-12-19T07:55:00.100Z,19.50
2022-12-19T07:57:29.841Z,21.20
2022-12-19T07:59:58.177Z,23.05
2022-12-19T08:02:26.681Z,23.30
2022-12-19T08:04:55.010Z,26.38
2022-12-19T08:07:23.503Z,24.08
2022-12-19T08:09:52.037Z,23.98
2022-12-19T08:12:20.815Z,26.15
2022-12-19T08:14:55.580Z,25.42
2022-12-19T08:17:26.372Z,23.75
2022-12-19T08:19:54.768Z,24.67
2022-12-19T08:22:24.097Z,23.80
2022-12-19T08:24:54.512Z,23.98
2022-12-19T08:27:22.861Z,21.77
2022-12-19T08:29:52.703Z,27.03
2022-12-19T08:32:24.409Z,24.30
2022-12-19T08:34:54.844Z,24.17
2022-12-19T08:37:23.246Z,24.33
2022-12-19T08:39:51.633Z,24.67
2022-12-19T08:42:19.936Z,22.88
2022-12-19T08:44:53.107Z,24.23
2022-12-19T08:47:21.478Z,23.73
2022-12-19T08:49:49.858Z,24.60
2022-12-19T08:52:18.588Z,24.83
2022-12-19T08:54:47.061Z,21.35
2022-12-19T08:57:15.471Z,24.13
2022-12-19T08:59:43.738Z,23.50
2022-12-19T09:02:16.314Z,22.25
2022-12-19T09:06:02.383Z,22.80
2022-12-19T09:07:34.720Z,24.63
2022-12-19T09:10:08.543Z,24.30
2022-12-19T09:12:39.684Z,24.30
2022-12-19T09:15:09.015Z,25.50
2022-12-19T09:17:39.110Z,21.60
2022-12-19T09:20:09.556Z,22.57
2022-12-19T09:22:37.895Z,23.70
2022-12-19T09:25:07.147Z,24.33
2022-12-19T09:28:01.330Z,23.70
2022-12-19T09:30:24.465Z,23.50
2022-12-19T09:32:54.151Z,22.90
2022-12-19T09:35:27.022Z,24.08
2022-12-19T09:38:03.727Z,23.80
2022-12-19T09:40:37.030Z,23.02
2022-12-19T09:43:12.286Z,22.27
2022-12-19T09:45:53.757Z,20.13
2022-12-19T09:48:25.183Z,23.55
2022-12-19T09:51:10.301Z,19.67
2022-12-19T09:53:57.084Z,20.25
2022-12-19T09:56:29.494Z,21.85
2022-12-19T09:59:02.770Z,21.48
2022-12-19T10:01:35.329Z,23.20
2022-12-19T10:04:10.358Z,23.10
2022-12-19T10:07:12.935Z,23.50
2022-12-19T10:12:11.830Z,22.88
2022-12-19T10:12:47.457Z,22.67
2022-12-19T10:15:25.742Z,21.60
2022-12-19T10:18:06.795Z,23.83
2022-12-19T10:20:39.510Z,22.70
2022-12-19T10:23:23.659Z,22.05
2022-12-19T10:25:58.436Z,22.60
2022-12-19T10:28:57.387Z,21.30
2022-12-19T10:31:31.552Z,24.10
2022-12-19T10:34:04.420Z,23.07
2022-12-19T10:37:12.770Z,22.92
2022-12-19T10:39:34.181Z,18.80
2022-12-19T10:42:09.579Z,19.33
2022-12-19T10:44:40.307Z,22.65
2022-12-19T10:47:11.116Z,25.58
2022-12-19T10:49:40.569Z,30.55
2022-12-19T10:52:11.480Z,29.73
2022-12-19T10:54:41.968Z,28.90
2022-12-19T10:57:24.775Z,28.70
2022-12-19T10:59:58.107Z,30.87
2022-12-19T11:02:36.819Z,30.50
2022-12-19T11:05:07.808Z,27.77
2022-12-19T11:07:38.104Z,25.92
2022-12-19T11:13:22.277Z,28.40
2022-12-19T11:18:33.241Z,27.45
2022-12-19T11:21:41.112Z,29.10
2022-12-19T11:29:17.391Z,25.95
2022-12-19T11:29:30.354Z,28.98
2022-12-19T11:30:05.875Z,26.80
2022-12-19T11:30:46.429Z,26.33
2022-12-19T11:33:55.774Z,27.50
2022-12-19T11:36:33.058Z,27.63
2022-12-19T11:39:01.838Z,29.30
2022-12-19T11:41:35.223Z,29.23
2022-12-19T11:44:08.222Z,28.67
2022-12-19T11:46:40.860Z,25.70
2022-12-19T11:49:15.068Z,28.80
2022-12-19T11:51:49.394Z,27.40
2022-12-19T11:54:20.984Z,27.25
2022-12-19T11:56:50.738Z,25.90
2022-12-19T11:59:20.395Z,27.30
2022-12-19T12:02:05.016Z,26.38
2022-12-19T12:04:55.862Z,26.48
2022-12-19T12:08:09.886Z,27.35
2022-12-19T12:16:21.137Z,25.50
2022-12-19T12:21:19.544Z,27.35
2022-12-19T12:27:25.877Z,26.27
2022-12-19T12:31:12.696Z,27.45
2022-12-19T12:31:18.476Z,24.33
2022-12-19T12:31:23.269Z,27.35
2022-12-19T12:31:42.234Z,26.35
2022-12-19T12:31:57.579Z,27.23
2022-12-19T12:35:33.277Z,27.13
2022-12-19T12:38:10.896Z,23.20
2022-12-19T12:39:34.941Z,27.27
2022-12-19T12:42:12.596Z,25.92
2022-12-19T12:44:45.860Z,27.70
2022-12-19T12:47:20.717Z,26.67
2022-12-19T12:49:54.477Z,25.23
2022-12-19T12:52:27.941Z,24.60
2022-12-19T12:54:57.581Z,26.92
2022-12-19T12:57:36.601Z,26.33
2022-12-19T13:00:29.207Z,26.05
2022-12-19T13:03:05.514Z,26.23
2022-12-19T13:05:39.629Z,23.10
2022-12-19T13:08:27.533Z,27.77
2022-12-19T13:10:56.816Z,23.48
2022-12-19T13:13:49.925Z,24.20
2022-12-19T13:16:49.885Z,26.98
2022-12-19T13:19:27.927Z,27.02
2022-12-19T13:22:23.718Z,25.38
2022-12-19T13:24:53.609Z,25.63
2022-12-19T13:27:41.511Z,25.13
2022-12-19T13:30:19.164Z,26.50
2022-12-19T13:33:09.506Z,29.30
2022-12-19T13:39:40.868Z,27.67
2022-12-19T13:39:54.404Z,26.95
2022-12-19T13:41:42.979Z,26.17
2022-12-19T13:44:12.198Z,27.23
2022-12-19T13:46:43.006Z,29.13
2022-12-19T13:49:16.103Z,26.98
2022-12-19T13:51:51.635Z,26.75
2022-12-19T13:54:24.777Z,26.75
2022-12-19T13:56:54.243Z,28.85
2022-12-19T13:59:23.348Z,30.15
2022-12-19T14:01:53.189Z,27.80
2022-12-19T14:04:30.215Z,29.50
2022-12-19T14:07:02.656Z,28.77
2022-12-19T14:11:28.833Z,26.55
2022-12-19T14:13:47.075Z,27.55
2022-12-19T14:15:30.847Z,27.05
2022-12-19T14:18:41.733Z,28.85
2022-12-19T14:22:05.377Z,28.30
2022-12-19T14:23:43.345Z,29.08
2022-12-19T14:28:23.157Z,29.45
2022-12-19T14:29:06.911Z,31.77
2022-12-19T14:31:38.938Z,30.88
2022-12-19T14:35:22.387Z,26.60
2022-12-19T14:37:31.834Z,29.50
2022-12-19T14:40:26.544Z,29.02
2022-12-19T14:43:57.493Z,29.10
2022-12-19T14:54:00.455Z,29.80
2022-12-19T14:54:01.594Z,28.90
2022-12-19T14:54:41.911Z,28.42
2022-12-19T14:56:08.549Z,28.08
2022-12-19T14:58:52.175Z,30.02
2022-12-19T15:01:25.106Z,27.55
2022-12-19T15:04:53.081Z,31.45
2022-12-19T15:07:09.127Z,30.50
2022-12-19T15:11:05.355Z,29.33
2022-12-19T15:14:50.942Z,28.05
2022-12-19T15:15:46.297Z,30.15
2022-12-19T15:18:24.211Z,33.05
2022-12-19T15:20:54.043Z,32.15
2022-12-19T15:23:22.999Z,29.85
2022-12-19T15:26:08.771Z,31.33
2022-12-19T15:28:43.742Z,29.02
2022-12-19T15:31:25.276Z,34.58
2022-12-19T15:34:32.970Z,28.45
2022-12-19T15:36:41.922Z,29.77
2022-12-19T15:39:10.220Z,26.38
2022-12-19T15:41:38.536Z,32.25
2022-12-19T15:44:11.538Z,29.73
2022-12-19T15:46:46.376Z,31.20
2022-12-19T15:49:17.584Z,29.92
2022-12-19T15:51:46.223Z,31.75
2022-12-19T15:54:47.132Z,30.42
2022-12-19T15:57:03.036Z,29.30
2022-12-19T15:59:37.335Z,31.15
2022-12-19T16:02:17.035Z,30.13
2022-12-19T16:04:46.574Z,29.67
2022-12-19T16:07:17.151Z,28.10
2022-12-19T16:09:45.829Z,27.20
2022-12-19T16:12:16.604Z,30.70
2022-12-19T16:14:47.153Z,28.40
2022-12-19T16:17:20.513Z,29.70
2022-12-19T16:19:50.183Z,31.52
2022-12-19T16:22:20.555Z,29.60
2022-12-19T16:24:49.017Z,29.70
2022-12-19T16:27:22.577Z,30.73
2022-12-19T16:29:52.919Z,27.45
2022-12-19T16:32:23.181Z,30.90
2022-12-19T16:34:51.706Z,28.63
2022-12-19T16:37:20.019Z,29.58
2022-12-19T16:39:48.362Z,31.20
2022-12-19T16:42:17.778Z,30.05
2022-12-19T16:44:47.212Z,29.25
2022-12-19T16:47:18.841Z,30.80
2022-12-19T16:49:47.202Z,31.48
2022-12-19T16:52:15.518Z,32.13
2022-12-19T16:54:43.936Z,34.03
2022-12-19T16:57:21.548Z,36.10
2022-12-19T16:59:50.169Z,32.90
2022-12-19T17:02:41.175Z,32.72
2022-12-19T17:05:16.762Z,30.20
2022-12-19T17:07:46.208Z,29.80
2022-12-19T17:10:14.836Z,29.60
2022-12-19T17:12:43.825Z,32.33
2022-12-19T17:15:23.139Z,32.40
2022-12-19T17:17:53.765Z,33.90
2022-12-19T17:20:23.865Z,31.27
2022-12-19T17:22:52.481Z,30.63
2022-12-19T17:25:25.768Z,31.55
2022-12-19T17:27:56.115Z,29.48
2022-12-19T17:30:24.537Z,31.67
2022-12-19T17:32:56.235Z,31.83
2022-12-19T17:35:28.229Z,32.70
2022-12-19T17:37:58.075Z,34.13
2022-12-19T17:40:28.313Z,30.15
2022-12-19T17:42:57.226Z,31.83
2022-12-19T17:45:26.679Z,33.95
2022-12-19T17:48:02.516Z,30.50
2022-12-19T17:50:34.057Z,34.33
2022-12-19T17:53:02.443Z,33.65
2022-12-19T17:55:31.566Z,29.83
2022-12-19T17:58:00.118Z,30.50
2022-12-19T18:00:31.007Z,33.45
2022-12-19T18:03:02.999Z,31.02
2022-12-19T18:05:35.980Z,31.15
2022-12-19T18:08:05.388Z,32.42
2022-12-19T18:10:33.986Z,32.00
2022-12-19T18:13:02.763Z,31.77
2022-12-19T18:15:31.277Z,34.55
2022-12-19T18:18:02.622Z,30.83
2022-12-19T18:20:33.878Z,29.02
2022-12-19T18:23:03.786Z,29.05
2022-12-19T18:25:35.900Z,30.50
2022-12-19T18:28:04.190Z,29.27
2022-12-19T18:30:32.936Z,30.05
2022-12-19T18:33:04.139Z,31.48
2022-12-19T18:35:36.157Z,32.35
2022-12-19T18:38:09.156Z,32.35
2022-12-19T18:40:37.490Z,29.38
2022-12-19T18:43:08.918Z,29.75
2022-12-19T18:45:40.064Z,32.22
2022-12-19T18:48:17.200Z,28.85
2022-12-19T18:50:46.616Z,32.35
2022-12-19T18:53:18.173Z,31.65
2022-12-19T18:55:46.736Z,30.48
2022-12-19T18:58:16.027Z,31.42
2022-12-19T19:00:45.938Z,35.33
2022-12-19T19:03:17.274Z,33.47
2022-12-19T19:05:47.107Z,30.48
2022-12-19T19:08:21.961Z,33.58
2022-12-19T19:11:00.530Z,31.58
2022-12-19T19:13:29.679Z,31.13
2022-12-19T19:15:59.999Z,28.38
2022-12-19T19:18:33.289Z,28.98
2022-12-19T19:21:03.221Z,30.25
2022-12-19T19:23:35.187Z,30.10
2022-12-19T19:26:05.111Z,27.45
2022-12-19T19:28:34.019Z,31.25
2022-12-19T19:31:03.684Z,32.63
2022-12-19T19:33:37.739Z,28.70
2022-12-19T19:36:12.246Z,29.00
2022-12-19T19:38:46.993Z,30.65
2022-12-19T19:41:15.395Z,28.70
2022-12-19T19:43:45.032Z,26.98
2022-12-19T19:46:14.171Z,31.77
2022-12-19T19:48:44.925Z,29.08
2022-12-19T19:51:16.520Z,28.65
2022-12-19T19:53:44.964Z,30.58
2022-12-19T19:56:14.506Z,31.88
2022-12-19T19:58:43.643Z,28.13
2022-12-19T20:01:14.155Z,16.50
2022-12-19T20:03:45.379Z,26.52
2022-12-19T20:06:15.266Z,30.08
2022-12-19T20:08:44.894Z,30.90
2022-12-19T20:11:14.024Z,28.88
2022-12-19T20:13:43.537Z,30.75
2022-12-19T20:16:15.986Z,29.30
2022-12-19T20:18:48.745Z,28.75
2022-12-19T20:21:18.523Z,29.83
2022-12-19T20:23:47.141Z,28.08
2022-12-19T20:26:17.485Z,29.17
2022-12-19T20:28:49.340Z,28.40
2022-12-19T20:31:19.906Z,30.42
2022-12-19T20:33:51.066Z,25.60
2022-12-19T20:36:20.980Z,27.25
2022-12-19T20:38:50.821Z,25.63
2022-12-19T20:41:20.035Z,27.65
2022-12-19T20:43:49.594Z,25.00
2022-12-19T20:46:21.206Z,27.88
2022-12-19T20:48:55.179Z,25.77
2022-12-19T20:51:27.098Z,23.83
2022-12-19T20:53:56.574Z,24.50
2022-12-19T20:56:26.127Z,27.45
2022-12-19T20:58:54.595Z,27.65
2022-12-19T21:01:25.114Z,25.92
2022-12-19T21:03:55.327Z,28.00
2022-12-19T21:06:27.343Z,28.50
2022-12-19T21:09:02.382Z,27.67
2022-12-19T21:11:33.539Z,27.38
2022-12-19T21:14:01.913Z,30.73
2022-12-19T21:16:30.394Z,28.30
2022-12-19T21:19:00.323Z,28.05
2022-12-19T21:21:29.058Z,31.17
2022-12-19T21:23:58.003Z,28.83
2022-12-19T21:26:27.508Z,24.33
2022-12-19T21:28:58.047Z,26.77
2022-12-19T21:31:28.603Z,26.05
2022-12-19T21:33:57.678Z,27.55
2022-12-19T21:36:30.187Z,26.38
2022-12-19T21:38:59.597Z,27.42
2022-12-19T21:41:28.309Z,25.92
2022-12-19T21:43:57.192Z,26.48
2022-12-19T21:46:27.873Z,26.73
2022-12-19T21:48:58.689Z,26.17
2022-12-19T21:51:30.823Z,24.23
2022-12-19T21:54:01.706Z,26.23
2022-12-19T21:56:32.061Z,26.55
2022-12-19T21:59:03.231Z,26.42
2022-12-19T22:01:32.446Z,25.58
2022-12-19T22:04:01.393Z,26.23
2022-12-19T22:06:33.686Z,28.08
2022-12-19T22:09:02.883Z,22.25
2022-12-19T22:11:31.796Z,25.70
2022-12-19T22:14:01.046Z,28.58
2022-12-19T22:16:31.066Z,23.70
2022-12-19T22:18:59.511Z,26.98
2022-12-19T22:21:28.352Z,24.92
2022-12-19T22:24:00.215Z,23.05
2022-12-19T22:26:30.102Z,26.27
2022-12-19T22:28:59.443Z,26.60
2022-12-19T22:31:30.125Z,27.50
2022-12-19T22:34:00.238Z,24.73
2022-12-19T22:36:29.841Z,24.60
2022-12-19T22:39:03.499Z,22.88
2022-12-19T22:41:33.349Z,26.30
2022-12-19T22:44:01.707Z,23.80
2022-12-19T22:46:32.110Z,22.48
2022-12-19T22:49:03.240Z,24.20
2022-12-19T22:51:40.198Z,24.92
2022-12-19T22:54:11.893Z,25.38
2022-12-19T22:56:42.198Z,26.95
2022-12-19T22:59:12.343Z,22.15
2022-12-19T23:01:42.398Z,24.90
2022-12-19T23:04:13.930Z,21.50
2022-12-19T23:06:42.691Z,23.85
2022-12-19T23:09:16.190Z,23.52
2022-12-19T23:11:46.459Z,23.27
2022-12-19T23:14:16.087Z,23.63
2022-12-19T23:16:45.773Z,24.83
2022-12-19T23:19:15.477Z,22.83
2022-12-19T23:21:43.929Z,26.15
2022-12-19T23:24:15.205Z,26.60
2022-12-19T23:26:44.484Z,26.30
2022-12-19T23:29:14.885Z,25.85
2022-12-19T23:31:46.747Z,23.50
2022-12-19T23:34:15.953Z,23.58
2022-12-19T23:39:34.592Z,25.40
2022-12-19T23:42:03.335Z,21.85
2022-12-19T23:44:31.882Z,24.73
2022-12-19T23:47:03.473Z,23.15
2022-12-19T23:49:32.866Z,25.77
2022-12-19T23:52:01.231Z,27.75
2022-12-19T23:54:29.659Z,23.95
2022-12-19T23:57:01.626Z,24.58
2022-12-19T23:59:30.087Z,24.50
